sensor_id;sensor_type;location;lat;lon;timestamp;pressure;altitude;pressure_sealevel;temperature;humidity
6899;BME280;3488;42.616;23.350;2023-03-04T00:01:40;62505.41;;;4.98;100.00
6899;BME280;3488;42.616;23.350;2023-03-04T00:04:07;62517.72;;;5.07;100.00
6899;BME280;3488;42.616;23.350;2023-03-04T00:06:34;62523.91;;;5.13;100.00
6899;BME280;3488;42.616;23.350;2023-03-04T00:09:01;62534.63;;;5.19;100.00
6899;BME280;3488;42.616;23.350;2023-03-04T00:11:29;62523.34;;;5.10;100.00
6899;BME280;3488;42.616;23.350;2023-03-04T00:13:56;62518.69;;;5.06;100.00
6899;BME280;3488;42.616;23.350;2023-03-04T00:16:24;62501.72;;;4.89;100.00
6899;BME280;3488;42.616;23.350;2023-03-04T00:18:53;62507.03;;;5.02;100.00
6899;BME280;3488;42.616;23.350;2023-03-04T00:21:20;62520.34;;;5.12;100.00
6899;BME280;3488;42.616;23.350;2023-03-04T00:23:47;62530.03;;;5.17;100.00
6899;BME280;3488;42.616;23.350;2023-03-04T00:26:14;62528.53;;;5.18;100.00
6899;BME280;3488;42.616;23.350;2023-03-04T00:28:41;62530.50;;;5.15;100.00
6899;BME280;3488;42.616;23.350;2023-03-04T00:31:09;62532.63;;;5.19;100.00
6899;BME280;3488;42.616;23.350;2023-03-04T00:33:36;62536.78;;;5.26;100.00
6899;BME280;3488;42.616;23.350;2023-03-04T00:36:06;62550.22;;;5.41;100.00
6899;BME280;3488;42.616;23.350;2023-03-04T00:38:33;62539.88;;;5.29;100.00
6899;BME280;3488;42.616;23.350;2023-03-04T00:41:00;62528.06;;;5.20;100.00
6899;BME280;3488;42.616;23.350;2023-03-04T00:43:27;62513.66;;;5.06;100.00
6899;BME280;3488;42.616;23.350;2023-03-04T00:45:54;62505.38;;;4.95;100.00
6899;BME280;3488;42.616;23.350;2023-03-04T00:48:21;62499.72;;;4.90;100.00
6899;BME280;3488;42.616;23.350;2023-03-04T00:50:48;62508.91;;;4.96;100.00
6899;BME280;3488;42.616;23.350;2023-03-04T00:53:19;62500.78;;;4.93;100.00
6899;BME280;3488;42.616;23.350;2023-03-04T00:55:48;62502.34;;;4.95;100.00
6899;BME280;3488;42.616;23.350;2023-03-04T00:58:15;62506.97;;;4.99;100.00
6899;BME280;3488;42.616;23.350;2023-03-04T01:00:42;62514.06;;;5.01;100.00
6899;BME280;3488;42.616;23.350;2023-03-04T01:03:09;62505.31;;;4.93;100.00
6899;BME280;3488;42.616;23.350;2023-03-04T01:05:36;62503.81;;;4.94;100.00
6899;BME280;3488;42.616;23.350;2023-03-04T01:08:03;62508.47;;;4.98;100.00
6899;BME280;3488;42.616;23.350;2023-03-04T01:10:32;62516.66;;;5.04;100.00
6899;BME280;3488;42.616;23.350;2023-03-04T01:12:59;62520.75;;;5.08;100.00
6899;BME280;3488;42.616;23.350;2023-03-04T01:15:26;62516.75;;;5.09;100.00
6899;BME280;3488;42.616;23.350;2023-03-04T01:17:53;62515.69;;;5.05;100.00
6899;BME280;3488;42.616;23.350;2023-03-04T01:20:20;62504.84;;;4.95;100.00
6899;BME280;3488;42.616;23.350;2023-03-04T01:22:47;62517.16;;;5.04;100.00
6899;BME280;3488;42.616;23.350;2023-03-04T01:25:14;62519.28;;;5.09;100.00
6899;BME280;3488;42.616;23.350;2023-03-04T01:27:42;62516.13;;;5.03;100.00
6899;BME280;3488;42.616;23.350;2023-03-04T01:30:11;62510.47;;;4.98;100.00
6899;BME280;3488;42.616;23.350;2023-03-04T01:32:38;62502.78;;;4.93;100.00
6899;BME280;3488;42.616;23.350;2023-03-04T01:35:06;62494.97;;;4.80;100.00
6899;BME280;3488;42.616;23.350;2023-03-04T01:37:33;62505.31;;;4.93;100.00
6899;BME280;3488;42.616;23.350;2023-03-04T01:40:00;62495.59;;;4.86;100.00
6899;BME280;3488;42.616;23.350;2023-03-04T01:42:29;62484.22;;;4.72;100.00
6899;BME280;3488;42.616;23.350;2023-03-04T01:44:59;62497.09;;;4.85;100.00
6899;BME280;3488;42.616;23.350;2023-03-04T01:47:28;62503.31;;;4.93;100.00
6899;BME280;3488;42.616;23.350;2023-03-04T01:49:56;62487.31;;;4.75;100.00
6899;BME280;3488;42.616;23.350;2023-03-04T01:52:26;62485.81;;;4.76;100.00
6899;BME280;3488;42.616;23.350;2023-03-04T01:54:53;62500.22;;;4.90;100.00
6899;BME280;3488;42.616;23.350;2023-03-04T01:57:22;62503.31;;;4.93;100.00
6899;BME280;3488;42.616;23.350;2023-03-04T02:00:16;62515.09;;;5.02;100.00
6899;BME280;3488;42.616;23.350;2023-03-04T02:02:43;62482.63;;;4.68;100.00
6899;BME280;3488;42.616;23.350;2023-03-04T02:05:10;62476.00;;;4.64;100.00
6899;BME280;3488;42.616;23.350;2023-03-04T02:07:37;62472.94;;;4.63;100.00
6899;BME280;3488;42.616;23.350;2023-03-04T02:10:05;62466.19;;;4.54;100.00
6899;BME280;3488;42.616;23.350;2023-03-04T02:12:32;62453.91;;;4.45;100.00
6899;BME280;3488;42.616;23.350;2023-03-04T02:14:59;62450.75;;;4.39;100.00
6899;BME280;3488;42.616;23.350;2023-03-04T02:17:28;62458.53;;;4.49;100.00
6899;BME280;3488;42.616;23.350;2023-03-04T02:20:00;62464.13;;;4.52;100.00
6899;BME280;3488;42.616;23.350;2023-03-04T02:22:28;62469.88;;;4.60;100.00
6899;BME280;3488;42.616;23.350;2023-03-04T02:24:58;62476.59;;;4.69;100.00
6899;BME280;3488;42.616;23.350;2023-03-04T02:27:28;62500.22;;;4.90;100.00
6899;BME280;3488;42.616;23.350;2023-03-04T02:29:55;62504.91;;;4.97;100.00
6899;BME280;3488;42.616;23.350;2023-03-04T02:32:21;62519.22;;;5.06;100.00
6899;BME280;3488;42.616;23.350;2023-03-04T02:34:49;62521.81;;;5.09;100.00
6899;BME280;3488;42.616;23.350;2023-03-04T02:37:17;62522.78;;;5.07;100.00
6899;BME280;3488;42.616;23.350;2023-03-04T02:39:47;62516.59;;;5.01;100.00
6899;BME280;3488;42.616;23.350;2023-03-04T02:42:14;62513.00;;;4.98;100.00
6899;BME280;3488;42.616;23.350;2023-03-04T02:44:45;62495.13;;;4.88;100.00
6899;BME280;3488;42.616;23.350;2023-03-04T02:47:15;62493.53;;;4.84;100.00
6899;BME280;3488;42.616;23.350;2023-03-04T02:49:43;62485.31;;;4.76;100.00
6899;BME280;3488;42.616;23.350;2023-03-04T02:52:13;62486.28;;;4.74;100.00
6899;BME280;3488;42.616;23.350;2023-03-04T02:54:40;62480.63;;;4.68;100.00
6899;BME280;3488;42.616;23.350;2023-03-04T02:57:09;62484.22;;;4.72;100.00
6899;BME280;3488;42.616;23.350;2023-03-04T02:59:37;62497.66;;;4.88;100.00
6899;BME280;3488;42.616;23.350;2023-03-04T03:02:06;62504.25;;;4.89;100.00
6899;BME280;3488;42.616;23.350;2023-03-04T03:04:35;62491.97;;;4.82;100.00
6899;BME280;3488;42.616;23.350;2023-03-04T03:07:03;62487.41;;;4.80;100.00
6899;BME280;3488;42.616;23.350;2023-03-04T03:09:30;62490.38;;;4.78;100.00
6899;BME280;3488;42.616;23.350;2023-03-04T03:11:57;62491.47;;;4.82;100.00
6899;BME280;3488;42.616;23.350;2023-03-04T03:14:24;62484.22;;;4.72;100.00
6899;BME280;3488;42.616;23.350;2023-03-04T03:16:51;62478.63;;;4.69;100.00
6899;BME280;3488;42.616;23.350;2023-03-04T03:19:19;62471.97;;;4.65;100.00
6899;BME280;3488;42.616;23.350;2023-03-04T03:21:46;62476.50;;;4.64;100.00
6899;BME280;3488;42.616;23.350;2023-03-04T03:24:12;62477.53;;;4.65;100.00
6899;BME280;3488;42.616;23.350;2023-03-04T03:26:39;62476.00;;;4.64;100.00
6899;BME280;3488;42.616;23.350;2023-03-04T03:29:06;62469.34;;;4.60;100.00
6899;BME280;3488;42.616;23.350;2023-03-04T03:31:33;62465.28;;;4.58;100.00
6899;BME280;3488;42.616;23.350;2023-03-04T03:34:00;62466.75;;;4.57;100.00
6899;BME280;3488;42.616;23.350;2023-03-04T03:36:28;62458.59;;;4.52;100.00
6899;BME280;3488;42.616;23.350;2023-03-04T03:38:55;62455.44;;;4.46;100.00
6899;BME280;3488;42.616;23.350;2023-03-04T03:41:22;62447.19;;;4.38;100.00
6899;BME280;3488;42.616;23.350;2023-03-04T03:43:49;62445.16;;;4.36;100.00
6899;BME280;3488;42.616;23.350;2023-03-04T03:46:16;62448.75;;;4.40;100.00
6899;BME280;3488;42.616;23.350;2023-03-04T03:48:45;62448.69;;;4.37;100.00
6899;BME280;3488;42.616;23.350;2023-03-04T03:51:11;62446.66;;;4.35;100.00
6899;BME280;3488;42.616;23.350;2023-03-04T03:53:40;62430.78;;;4.25;100.00
6899;BME280;3488;42.616;23.350;2023-03-04T03:56:07;62417.31;;;4.07;100.00
6899;BME280;3488;42.616;23.350;2023-03-04T03:58:34;62399.94;;;3.95;100.00
6899;BME280;3488;42.616;23.350;2023-03-04T04:01:01;62391.19;;;3.86;100.00
6899;BME280;3488;42.616;23.350;2023-03-04T04:03:28;62388.59;;;3.81;100.00
6899;BME280;3488;42.616;23.350;2023-03-04T04:05:55;62376.25;;;3.69;100.00
6899;BME280;3488;42.616;23.350;2023-03-04T04:08:22;62373.09;;;3.64;100.00
6899;BME280;3488;42.616;23.350;2023-03-04T04:10:51;62372.13;;;3.65;100.00
6899;BME280;3488;42.616;23.350;2023-03-04T04:13:18;62368.97;;;3.60;100.00
6899;BME280;3488;42.616;23.350;2023-03-04T04:15:45;62348.41;;;3.39;100.00
6899;BME280;3488;42.616;23.350;2023-03-04T04:18:12;62343.94;;;3.42;100.00
6899;BME280;3488;42.616;23.350;2023-03-04T04:20:39;62340.25;;;3.34;100.00
6899;BME280;3488;42.616;23.350;2023-03-04T04:23:06;62307.84;;;3.02;100.00
6899;BME280;3488;42.616;23.350;2023-03-04T04:25:32;62324.72;;;3.14;100.00
6899;BME280;3488;42.616;23.350;2023-03-04T04:28:01;62315.63;;;3.12;100.00
6899;BME280;3488;42.616;23.350;2023-03-04T04:30:28;62310.44;;;3.05;100.00
6899;BME280;3488;42.616;23.350;2023-03-04T04:32:54;62309.91;;;3.04;100.00
6899;BME280;3488;42.616;23.350;2023-03-04T04:35:28;62318.66;;;3.13;100.00
6899;BME280;3488;42.616;23.350;2023-03-04T04:37:55;62326.38;;;3.20;100.00
6899;BME280;3488;42.616;23.350;2023-03-04T04:40:22;62331.00;;;3.25;100.00
6899;BME280;3488;42.616;23.350;2023-03-04T04:42:49;62337.56;;;3.26;100.00
6899;BME280;3488;42.616;23.350;2023-03-04T04:45:18;62325.41;;;3.22;100.00
6899;BME280;3488;42.616;23.350;2023-03-04T04:47:45;62326.38;;;3.20;100.00
6899;BME280;3488;42.616;23.350;2023-03-04T04:50:12;62334.03;;;3.25;100.00
6899;BME280;3488;42.616;23.350;2023-03-04T04:52:39;62332.53;;;3.26;100.00
6899;BME280;3488;42.616;23.350;2023-03-04T04:55:06;62337.16;;;3.31;100.00
6899;BME280;3488;42.616;23.350;2023-03-04T04:57:34;62341.16;;;3.30;100.00
6899;BME280;3488;42.616;23.350;2023-03-04T05:00:00;62339.16;;;3.30;100.00
6899;BME280;3488;42.616;23.350;2023-03-04T05:02:29;62336.13;;;3.30;100.00
6899;BME280;3488;42.616;23.350;2023-03-04T05:04:56;62331.00;;;3.25;100.00
6899;BME280;3488;42.616;23.350;2023-03-04T05:07:23;62342.19;;;3.31;100.00
6899;BME280;3488;42.616;23.350;2023-03-04T05:09:50;62349.41;;;3.38;100.00
6899;BME280;3488;42.616;23.350;2023-03-04T05:12:17;62337.16;;;3.31;100.00
6899;BME280;3488;42.616;23.350;2023-03-04T05:14:44;62345.91;;;3.39;100.00
6899;BME280;3488;42.616;23.350;2023-03-04T05:17:11;62339.72;;;3.33;100.00
6899;BME280;3488;42.616;23.350;2023-03-04T05:19:39;62350.00;;;3.43;100.00
6899;BME280;3488;42.616;23.350;2023-03-04T05:22:07;62353.66;;;3.49;100.00
6899;BME280;3488;42.616;23.350;2023-03-04T05:24:34;62367.97;;;3.59;100.00
6899;BME280;3488;42.616;23.350;2023-03-04T05:27:01;62367.03;;;3.63;100.00
6899;BME280;3488;42.616;23.350;2023-03-04T05:29:28;62379.88;;;3.75;100.00
6899;BME280;3488;42.616;23.350;2023-03-04T05:31:56;62393.72;;;3.86;100.00
6899;BME280;3488;42.616;23.350;2023-03-04T05:34:23;62400.34;;;3.90;100.00
6899;BME280;3488;42.616;23.350;2023-03-04T05:36:51;62414.81;;;4.07;100.00
6899;BME280;3488;42.616;23.350;2023-03-04T05:39:18;62421.56;;;4.16;100.00
6899;BME280;3488;42.616;23.350;2023-03-04T05:41:45;62434.34;;;4.26;100.00
6899;BME280;3488;42.616;23.350;2023-03-04T05:44:13;62448.19;;;4.37;100.00
6899;BME280;3488;42.616;23.350;2023-03-04T05:46:39;62442.59;;;4.34;100.00
6899;BME280;3488;42.616;23.350;2023-03-04T05:49:07;62449.72;;;4.38;100.00
6899;BME280;3488;42.616;23.350;2023-03-04T05:51:34;62448.75;;;4.40;100.00
6899;BME280;3488;42.616;23.350;2023-03-04T05:54:03;62471.34;;;4.59;100.00
6899;BME280;3488;42.616;23.350;2023-03-04T05:56:30;62477.16;;;4.72;100.00
6899;BME280;3488;42.616;23.350;2023-03-04T05:58:58;62491.88;;;4.77;100.00
6899;BME280;3488;42.616;23.350;2023-03-04T06:01:26;62500.72;;;4.91;100.00
6899;BME280;3488;42.616;23.350;2023-03-04T06:03:52;62509.44;;;4.97;100.00
6899;BME280;3488;42.616;23.350;2023-03-04T06:06:19;62523.88;;;5.11;100.00
6899;BME280;3488;42.616;23.350;2023-03-04T06:08:46;62516.22;;;5.08;100.00
6899;BME280;3488;42.616;23.350;2023-03-04T06:11:15;62513.59;;;5.03;100.00
6899;BME280;3488;42.616;23.350;2023-03-04T06:13:42;62520.31;;;5.10;100.00
6899;BME280;3488;42.616;23.350;2023-03-04T06:16:09;62497.09;;;4.85;100.00
6899;BME280;3488;42.616;23.350;2023-03-04T06:18:36;62486.84;;;4.77;100.00
6899;BME280;3488;42.616;23.350;2023-03-04T06:21:03;62494.97;;;4.80;100.00
6899;BME280;3488;42.616;23.350;2023-03-04T06:23:30;62494.56;;;4.85;100.00
6899;BME280;3488;42.616;23.350;2023-03-04T06:25:58;62508.41;;;4.96;100.00
6899;BME280;3488;42.616;23.350;2023-03-04T06:28:26;62504.34;;;4.94;100.00
6899;BME280;3488;42.616;23.350;2023-03-04T06:30:54;62495.59;;;4.86;100.00
6899;BME280;3488;42.616;23.350;2023-03-04T06:33:21;62508.41;;;4.96;100.00
6899;BME280;3488;42.616;23.350;2023-03-04T06:35:52;62522.31;;;5.09;100.00
6899;BME280;3488;42.616;23.350;2023-03-04T06:38:20;62541.84;;;5.26;100.00
6899;BME280;3488;42.616;23.350;2023-03-04T06:40:47;62545.44;;;5.29;100.00
6899;BME280;3488;42.616;23.350;2023-03-04T06:43:14;62523.97;;;5.16;100.00
6899;BME280;3488;42.616;23.350;2023-03-04T06:45:42;62551.16;;;5.37;100.00
6899;BME280;3488;42.616;23.350;2023-03-04T06:48:09;62537.31;;;5.26;100.00
6899;BME280;3488;42.616;23.350;2023-03-04T06:50:38;62550.16;;;5.39;100.00
6899;BME280;3488;42.616;23.350;2023-03-04T06:53:05;62536.25;;;5.25;100.00
6899;BME280;3488;42.616;23.350;2023-03-04T06:55:32;62535.25;;;5.24;100.00
6899;BME280;3488;42.616;23.350;2023-03-04T06:57:59;62533.63;;;5.20;100.00
6899;BME280;3488;42.616;23.350;2023-03-04T07:00:26;62532.56;;;5.17;100.00
6899;BME280;3488;42.616;23.350;2023-03-04T07:02:54;62520.81;;;5.10;100.00
6899;BME280;3488;42.616;23.350;2023-03-04T07:05:21;62509.44;;;4.97;100.00
6899;BME280;3488;42.616;23.350;2023-03-04T07:07:48;62508.97;;;4.99;100.00
6899;BME280;3488;42.616;23.350;2023-03-04T07:10:15;62493.53;;;4.84;100.00
6899;BME280;3488;42.616;23.350;2023-03-04T07:12:44;62497.13;;;4.87;100.00
6899;BME280;3488;42.616;23.350;2023-03-04T07:15:11;62507.41;;;4.97;100.00
6899;BME280;3488;42.616;23.350;2023-03-04T07:17:38;62489.34;;;4.77;100.00
6899;BME280;3488;42.616;23.350;2023-03-04T07:20:08;62491.47;;;4.82;100.00
6899;BME280;3488;42.616;23.350;2023-03-04T07:22:35;62495.69;;;4.91;100.00
6899;BME280;3488;42.616;23.350;2023-03-04T07:25:02;62523.34;;;5.10;100.00
6899;BME280;3488;42.616;23.350;2023-03-04T07:27:29;62528.53;;;5.18;100.00
6899;BME280;3488;42.616;23.350;2023-03-04T07:29:56;62520.84;;;5.13;100.00
6899;BME280;3488;42.616;23.350;2023-03-04T07:32:24;62536.78;;;5.26;100.00
6899;BME280;3488;42.616;23.350;2023-03-04T07:34:51;62547.59;;;5.36;100.00
6899;BME280;3488;42.616;23.350;2023-03-04T07:37:19;62574.38;;;5.62;100.00
6899;BME280;3488;42.616;23.350;2023-03-04T07:39:45;62596.03;;;5.83;100.00
6899;BME280;3488;42.616;23.350;2023-03-04T07:42:12;62615.09;;;6.02;100.00
6899;BME280;3488;42.616;23.350;2023-03-04T07:44:39;62593.97;;;5.81;100.00
6899;BME280;3488;42.616;23.350;2023-03-04T07:47:06;62609.91;;;5.95;100.00
6899;BME280;3488;42.616;23.350;2023-03-04T07:49:33;62634.03;;;6.13;100.00
6899;BME280;3488;42.616;23.350;2023-03-04T07:52:02;62617.16;;;6.04;100.00
6899;BME280;3488;42.616;23.350;2023-03-04T07:54:31;62609.81;;;5.90;100.00
6899;BME280;3488;42.616;23.350;2023-03-04T07:56:58;62604.31;;;5.94;100.00
6899;BME280;3488;42.616;23.350;2023-03-04T07:59:24;62591.38;;;5.79;100.00
6899;BME280;3488;42.616;23.350;2023-03-04T08:01:51;62575.94;;;5.64;100.00
6899;BME280;3488;42.616;23.350;2023-03-04T08:04:18;62562.03;;;5.50;100.00
6899;BME280;3488;42.616;23.350;2023-03-04T08:06:45;62581.06;;;5.69;100.00
6899;BME280;3488;42.616;23.350;2023-03-04T08:09:13;62582.63;;;5.70;100.00
6899;BME280;3488;42.616;23.350;2023-03-04T08:11:42;62600.16;;;5.88;100.00
6899;BME280;3488;42.616;23.350;2023-03-04T08:14:09;62625.34;;;6.10;100.00
6899;BME280;3488;42.616;23.350;2023-03-04T08:16:37;62625.34;;;6.10;100.00
6899;BME280;3488;42.616;23.350;2023-03-04T08:19:06;62608.25;;;5.88;100.00
6899;BME280;3488;42.616;23.350;2023-03-04T08:21:33;62615.50;;;5.98;100.00
6899;BME280;3488;42.616;23.350;2023-03-04T08:24:02;62632.09;;;6.19;100.00
6899;BME280;3488;42.616;23.350;2023-03-04T08:26:35;62627.47;;;6.14;100.00
6899;BME280;3488;42.616;23.350;2023-03-04T08:29:08;62654.22;;;6.38;100.00
6899;BME280;3488;42.616;23.350;2023-03-04T08:31:35;62663.09;;;6.51;100.00
6899;BME280;3488;42.616;23.350;2023-03-04T08:34:04;62655.25;;;6.39;100.00
6899;BME280;3488;42.616;23.350;2023-03-04T08:36:32;62674.84;;;6.58;100.00
6899;BME280;3488;42.616;23.350;2023-03-04T08:38:59;62654.16;;;6.35;100.00
6899;BME280;3488;42.616;23.350;2023-03-04T08:41:26;62691.88;;;6.74;100.00
6899;BME280;3488;42.616;23.350;2023-03-04T08:43:53;62690.81;;;6.73;100.00
6899;BME280;3488;42.616;23.350;2023-03-04T08:46:21;62693.97;;;6.79;100.00
6899;BME280;3488;42.616;23.350;2023-03-04T08:48:48;62698.03;;;6.80;100.00
6899;BME280;3488;42.616;23.350;2023-03-04T08:51:15;62723.31;;;7.05;100.00
6899;BME280;3488;42.616;23.350;2023-03-04T08:53:42;62753.34;;;7.39;100.00
6899;BME280;3488;42.616;23.350;2023-03-04T08:56:10;62763.56;;;7.44;100.00
6899;BME280;3488;42.616;23.350;2023-03-04T08:58:37;62713.56;;;6.98;100.00
6899;BME280;3488;42.616;23.350;2023-03-04T09:01:07;62750.19;;;7.34;100.00
6899;BME280;3488;42.616;23.350;2023-03-04T09:03:36;62791.91;;;7.69;100.00
6899;BME280;3488;42.616;23.350;2023-03-04T09:06:04;62802.88;;;7.87;100.00
6899;BME280;3488;42.616;23.350;2023-03-04T09:08:32;62814.81;;;8.01;100.00
6899;BME280;3488;42.616;23.350;2023-03-04T09:11:00;62764.09;;;7.45;100.00
6899;BME280;3488;42.616;23.350;2023-03-04T09:13:29;62741.47;;;7.28;100.00
6899;BME280;3488;42.616;23.350;2023-03-04T09:15:57;62751.66;;;7.30;100.00
6899;BME280;3488;42.616;23.350;2023-03-04T09:18:25;62731.06;;;7.13;100.00
6899;BME280;3488;42.616;23.350;2023-03-04T09:20:54;62766.19;;;7.49;100.00
6899;BME280;3488;42.616;23.350;2023-03-04T09:23:21;62777.50;;;7.58;100.00
6899;BME280;3488;42.616;23.350;2023-03-04T09:25:48;62788.81;;;7.66;100.00
6899;BME280;3488;42.616;23.350;2023-03-04T09:28:15;62756.38;;;7.40;100.00
6899;BME280;3488;42.616;23.350;2023-03-04T09:30:42;62783.22;;;7.66;100.00
6899;BME280;3488;42.616;23.350;2023-03-04T09:33:10;62816.72;;;7.96;100.00
6899;BME280;3488;42.616;23.350;2023-03-04T09:35:37;62828.13;;;8.09;100.00
6899;BME280;3488;42.616;23.350;2023-03-04T09:38:05;62856.53;;;8.37;100.00
6899;BME280;3488;42.616;23.350;2023-03-04T09:40:38;62892.66;;;8.70;99.87
6899;BME280;3488;42.616;23.350;2023-03-04T09:43:13;62926.81;;;9.05;96.72
6899;BME280;3488;42.616;23.350;2023-03-04T09:45:48;62941.25;;;9.17;93.50
6899;BME280;3488;42.616;23.350;2023-03-04T09:48:17;62953.00;;;9.21;94.48
6899;BME280;3488;42.616;23.350;2023-03-04T09:51:01;62964.56;;;9.42;92.23
6899;BME280;3488;42.616;23.350;2023-03-04T09:53:39;62948.00;;;9.26;93.27
6899;BME280;3488;42.616;23.350;2023-03-04T09:56:06;62941.72;;;9.15;91.40
6899;BME280;3488;42.616;23.350;2023-03-04T09:58:41;62908.72;;;8.88;92.88
6899;BME280;3488;42.616;23.350;2023-03-04T10:01:19;62976.38;;;9.51;93.84
6899;BME280;3488;42.616;23.350;2023-03-04T10:03:51;62992.97;;;9.70;89.83
6899;BME280;3488;42.616;23.350;2023-03-04T10:06:21;63037.44;;;10.10;87.41
6899;BME280;3488;42.616;23.350;2023-03-04T10:08:53;62979.06;;;9.59;89.52
6899;BME280;3488;42.616;23.350;2023-03-04T10:11:25;62960.88;;;9.36;91.18
6899;BME280;3488;42.616;23.350;2023-03-04T10:13:59;62971.25;;;9.49;92.22
6899;BME280;3488;42.616;23.350;2023-03-04T10:16:32;62952.53;;;9.23;93.36
6899;BME280;3488;42.616;23.350;2023-03-04T10:19:17;62915.34;;;8.89;94.68
6899;BME280;3488;42.616;23.350;2023-03-04T10:21:47;62892.66;;;8.70;92.84
6899;BME280;3488;42.616;23.350;2023-03-04T10:24:18;62864.81;;;8.45;94.92
6899;BME280;3488;42.616;23.350;2023-03-04T10:26:50;62905.03;;;8.79;94.51
6899;BME280;3488;42.616;23.350;2023-03-04T10:29:21;62916.44;;;8.93;93.50
6899;BME280;3488;42.616;23.350;2023-03-04T10:31:49;62932.50;;;9.11;90.75
6899;BME280;3488;42.616;23.350;2023-03-04T10:34:17;62874.63;;;8.55;95.61
6899;BME280;3488;42.616;23.350;2023-03-04T10:36:52;62877.59;;;8.50;99.48
6899;BME280;3488;42.616;23.350;2023-03-04T10:39:26;62828.63;;;8.07;100.00
6899;BME280;3488;42.616;23.350;2023-03-04T10:41:56;62833.78;;;8.12;100.00
6899;BME280;3488;42.616;23.350;2023-03-04T10:44:23;62841.00;;;8.19;100.00
6899;BME280;3488;42.616;23.350;2023-03-04T10:46:53;62894.69;;;8.69;99.69
6899;BME280;3488;42.616;23.350;2023-03-04T10:49:21;62920.00;;;8.94;97.62
6899;BME280;3488;42.616;23.350;2023-03-04T10:51:51;62934.56;;;9.13;96.11
6899;BME280;3488;42.616;23.350;2023-03-04T10:54:28;62929.91;;;9.08;96.91
6899;BME280;3488;42.616;23.350;2023-03-04T10:56:59;62957.72;;;9.30;96.14
6899;BME280;3488;42.616;23.350;2023-03-04T10:59:45;62975.81;;;9.48;91.91
6899;BME280;3488;42.616;23.350;2023-03-04T11:02:23;62976.34;;;9.49;91.32
6899;BME280;3488;42.616;23.350;2023-03-04T11:04:53;63001.72;;;9.76;90.56
6899;BME280;3488;42.616;23.350;2023-03-04T11:07:22;63006.91;;;9.81;90.50
6899;BME280;3488;42.616;23.350;2023-03-04T11:09:51;63062.81;;;10.37;88.36
6899;BME280;3488;42.616;23.350;2023-03-04T11:12:21;63113.97;;;10.82;83.05
6899;BME280;3488;42.616;23.350;2023-03-04T11:14:57;63108.28;;;10.77;83.06
6899;BME280;3488;42.616;23.350;2023-03-04T11:17:26;63100.53;;;10.72;84.54
6899;BME280;3488;42.616;23.350;2023-03-04T11:19:57;63089.16;;;10.61;84.03
6899;BME280;3488;42.616;23.350;2023-03-04T11:22:28;63022.38;;;9.93;84.92
6899;BME280;3488;42.616;23.350;2023-03-04T11:25:02;63006.94;;;9.83;89.44
6899;BME280;3488;42.616;23.350;2023-03-04T11:27:37;62962.94;;;9.38;90.89
6899;BME280;3488;42.616;23.350;2023-03-04T11:30:23;62926.28;;;9.05;97.19
6899;BME280;3488;42.616;23.350;2023-03-04T11:32:55;62937.59;;;9.11;96.38
6899;BME280;3488;42.616;23.350;2023-03-04T11:35:32;62952.66;;;9.30;94.33
6899;BME280;3488;42.616;23.350;2023-03-04T11:38:04;62953.09;;;9.26;93.68
6899;BME280;3488;42.616;23.350;2023-03-04T11:40:38;62943.34;;;9.21;95.25
6899;BME280;3488;42.616;23.350;2023-03-04T11:43:11;62952.63;;;9.28;94.15
6899;BME280;3488;42.616;23.350;2023-03-04T11:48:56;62905.03;;;8.79;97.50
6899;BME280;3488;42.616;23.350;2023-03-04T11:51:31;62900.41;;;8.77;96.16
6899;BME280;3488;42.616;23.350;2023-03-04T11:54:15;62896.31;;;8.76;96.78
6899;BME280;3488;42.616;23.350;2023-03-04T11:56:46;62875.19;;;8.58;98.78
6899;BME280;3488;42.616;23.350;2023-03-04T11:59:48;62884.88;;;8.60;99.75
6899;BME280;3488;42.616;23.350;2023-03-04T12:02:20;62858.00;;;8.34;100.00
6899;BME280;3488;42.616;23.350;2023-03-04T12:05:16;62819.81;;;7.99;100.00
6899;BME280;3488;42.616;23.350;2023-03-04T12:08:06;62819.81;;;7.99;100.00
6899;BME280;3488;42.616;23.350;2023-03-04T12:10:44;62848.28;;;8.29;100.00
6899;BME280;3488;42.616;23.350;2023-03-04T12:13:27;62850.88;;;8.32;100.00
6899;BME280;3488;42.616;23.350;2023-03-04T12:16:10;62852.91;;;8.31;100.00
6899;BME280;3488;42.616;23.350;2023-03-04T12:18:49;62902.00;;;8.81;99.45
6899;BME280;3488;42.616;23.350;2023-03-04T12:21:32;62916.94;;;8.93;96.85
6899;BME280;3488;42.616;23.350;2023-03-04T12:24:33;62960.88;;;9.36;94.68
6899;BME280;3488;42.616;23.350;2023-03-04T12:27:11;62994.53;;;9.71;90.79
6899;BME280;3488;42.616;23.350;2023-03-04T12:29:47;63015.69;;;9.89;88.83
6899;BME280;3488;42.616;23.350;2023-03-04T12:32:26;63007.97;;;9.84;85.88
6899;BME280;3488;42.616;23.350;2023-03-04T12:35:12;63018.75;;;9.90;86.58
6899;BME280;3488;42.616;23.350;2023-03-04T12:37:59;63045.22;;;10.20;85.35
6899;BME280;3488;42.616;23.350;2023-03-04T12:40:37;63034.31;;;10.07;85.65
6899;BME280;3488;42.616;23.350;2023-03-04T12:46:14;63053.00;;;10.28;84.62
6899;BME280;3488;42.616;23.350;2023-03-04T12:48:54;63052.00;;;10.29;84.02
6899;BME280;3488;42.616;23.350;2023-03-04T12:51:30;63032.28;;;10.08;84.68
6899;BME280;3488;42.616;23.350;2023-03-04T12:54:16;63014.19;;;9.90;85.71
6899;BME280;3488;42.616;23.350;2023-03-04T12:56:51;62971.22;;;9.46;91.61
6899;BME280;3488;42.616;23.350;2023-03-04T12:59:21;62984.16;;;9.59;91.99
6899;BME280;3488;42.616;23.350;2023-03-04T13:01:58;62990.25;;;9.60;91.08
6899;BME280;3488;42.616;23.350;2023-03-04T13:04:34;62960.88;;;9.36;90.44
6899;BME280;3488;42.616;23.350;2023-03-04T13:07:11;62966.00;;;9.39;91.00
6899;BME280;3488;42.616;23.350;2023-03-04T13:09:47;62945.31;;;9.18;91.17
6899;BME280;3488;42.616;23.350;2023-03-04T13:12:17;62937.09;;;9.13;92.91
6899;BME280;3488;42.616;23.350;2023-03-04T13:15:16;62935.03;;;9.11;95.19
6899;BME280;3488;42.616;23.350;2023-03-04T13:17:48;62982.59;;;9.57;91.93
6899;BME280;3488;42.616;23.350;2023-03-04T13:20:34;62968.16;;;9.46;93.10
6899;BME280;3488;42.616;23.350;2023-03-04T13:23:19;62975.44;;;9.55;92.20
6899;BME280;3488;42.616;23.350;2023-03-04T13:26:12;63000.66;;;9.72;90.89
6899;BME280;3488;42.616;23.350;2023-03-04T13:28:43;62979.53;;;9.57;90.79
6899;BME280;3488;42.616;23.350;2023-03-04T13:31:22;62983.69;;;9.61;91.92
6899;BME280;3488;42.616;23.350;2023-03-04T13:34:02;62965.06;;;9.43;93.33